createdAt,value
2023-01-07T00:00:06.582Z,6.70
2023-01-07T00:02:58.883Z,6.70
2023-01-07T00:05:31.150Z,6.70
2023-01-07T00:08:03.411Z,6.80
2023-01-07T00:10:37.390Z,6.50
2023-01-07T00:13:09.756Z,7.70
2023-01-07T00:15:41.991Z,7.20
2023-01-07T00:18:14.361Z,7.80
2023-01-07T00:20:46.533Z,8.70
2023-01-07T00:23:18.816Z,10.40
2023-01-07T00:25:51.104Z,10.30
2023-01-07T00:28:23.338Z,10.50
2023-01-07T00:31:00.214Z,8.60
2023-01-07T00:33:35.368Z,8.50
2023-01-07T00:36:09.656Z,5.30
2023-01-07T00:38:42.163Z,9.20
2023-01-07T00:41:14.394Z,7.90
2023-01-07T00:43:46.611Z,7.30
2023-01-07T00:46:19.010Z,7.90
2023-01-07T00:48:52.076Z,7.40
2023-01-07T00:51:26.173Z,8.50
2023-01-07T00:53:58.503Z,9.90
2023-01-07T00:56:30.696Z,7.90
2023-01-07T00:59:02.961Z,9.70
2023-01-07T01:01:35.637Z,7.50
2023-01-07T01:04:08.418Z,8.10
2023-01-07T01:06:40.641Z,8.60
2023-01-07T01:09:12.863Z,9.00
2023-01-07T01:11:45.076Z,10.10
2023-01-07T01:14:17.415Z,8.20
2023-01-07T01:16:49.578Z,8.10
2023-01-07T01:19:21.753Z,7.70
2023-01-07T01:21:54.077Z,9.50
2023-01-07T01:24:26.281Z,7.00
2023-01-07T01:26:58.494Z,8.30
2023-01-07T01:29:30.701Z,6.60
2023-01-07T01:32:02.949Z,7.70
2023-01-07T01:34:35.169Z,7.40
2023-01-07T01:37:07.731Z,6.50
2023-01-07T01:39:40.101Z,7.10
2023-01-07T01:42:16.638Z,7.90
2023-01-07T01:44:52.399Z,6.80
2023-01-07T01:47:31.046Z,7.20
2023-01-07T01:50:11.373Z,7.40
2023-01-07T01:52:48.821Z,8.40
2023-01-07T01:55:23.969Z,6.30
2023-01-07T01:58:00.776Z,6.60
2023-01-07T02:00:34.037Z,6.70
2023-01-07T02:03:10.864Z,5.30
2023-01-07T02:05:44.466Z,5.80
2023-01-07T02:08:22.198Z,6.70
2023-01-07T02:11:02.738Z,5.70
2023-01-07T02:13:48.804Z,5.10
2023-01-07T02:16:30.329Z,7.10
2023-01-07T02:19:26.009Z,6.20
2023-01-07T02:22:03.457Z,5.90
2023-01-07T02:24:57.067Z,5.80
2023-01-07T02:27:56.902Z,6.70
2023-01-07T02:30:47.315Z,7.10
2023-01-07T02:33:42.217Z,5.80
2023-01-07T02:36:37.436Z,5.70
2023-01-07T02:39:23.828Z,6.40
2023-01-07T02:42:00.725Z,5.70
2023-01-07T02:44:39.898Z,5.70
2023-01-07T02:47:16.816Z,5.40
2023-01-07T02:49:50.837Z,7.20
2023-01-07T02:52:25.844Z,5.10
2023-01-07T02:55:04.686Z,5.10
2023-01-07T02:58:09.486Z,6.30
2023-01-07T03:01:06.882Z,5.90
2023-01-07T03:03:54.974Z,6.60
2023-01-07T03:06:48.657Z,6.70
2023-01-07T03:09:32.119Z,4.80
2023-01-07T03:12:13.819Z,6.30
2023-01-07T03:14:49.669Z,6.40
2023-01-07T03:19:59.197Z,5.30
2023-01-07T03:22:34.984Z,5.30
2023-01-07T03:25:10.306Z,6.20
2023-01-07T03:27:44.176Z,6.40
2023-01-07T03:30:20.162Z,7.10
2023-01-07T03:35:31.685Z,7.90
2023-01-07T03:38:06.076Z,6.30
2023-01-07T03:40:38.567Z,6.70
2023-01-07T03:43:19.278Z,6.60
2023-01-07T03:45:53.451Z,7.50
2023-01-07T03:48:25.689Z,8.00
2023-01-07T03:50:57.908Z,6.60
2023-01-07T03:53:30.091Z,6.40
2023-01-07T03:56:02.295Z,6.40
2023-01-07T03:58:34.515Z,6.60
2023-01-07T04:01:06.777Z,6.50
2023-01-07T04:03:38.998Z,7.60
2023-01-07T04:06:11.327Z,7.10
2023-01-07T04:08:43.512Z,7.60
2023-01-07T04:11:15.789Z,7.50
2023-01-07T04:13:48.182Z,7.70
2023-01-07T04:16:20.436Z,6.50
2023-01-07T04:18:52.829Z,6.70
2023-01-07T04:21:25.253Z,6.50
2023-01-07T04:23:57.464Z,7.90
2023-01-07T04:26:29.777Z,7.50
2023-01-07T04:29:02.015Z,7.70
2023-01-07T04:31:34.226Z,7.60
2023-01-07T04:34:06.622Z,8.10
2023-01-07T04:36:38.819Z,7.20
2023-01-07T04:39:11.101Z,7.30
2023-01-07T04:41:43.259Z,9.00
2023-01-07T04:44:17.751Z,7.90
2023-01-07T04:46:50.014Z,6.50
2023-01-07T04:49:22.324Z,6.80
2023-01-07T04:51:55.994Z,8.10
2023-01-07T04:54:28.193Z,7.90
2023-01-07T04:57:00.354Z,7.90
2023-01-07T04:59:32.615Z,6.80
2023-01-07T05:02:04.932Z,7.90
2023-01-07T05:04:37.376Z,9.90
2023-01-07T05:07:09.629Z,10.10
2023-01-07T05:09:41.825Z,14.40
2023-01-07T05:12:14.164Z,14.20
2023-01-07T05:14:46.401Z,12.50
2023-01-07T05:17:18.611Z,12.60
2023-01-07T05:19:50.808Z,12.80
2023-01-07T05:22:23.187Z,11.20
2023-01-07T05:24:55.434Z,13.10
2023-01-07T05:27:27.682Z,14.00
2023-01-07T05:30:00.013Z,13.90
2023-01-07T05:32:32.336Z,12.50
2023-01-07T05:35:04.629Z,13.30
2023-01-07T05:37:36.981Z,14.20
2023-01-07T05:40:11.898Z,15.10
2023-01-07T05:42:44.353Z,13.30
2023-01-07T05:45:16.688Z,14.10
2023-01-07T05:47:49.019Z,14.80
2023-01-07T05:50:21.231Z,14.60
2023-01-07T05:52:54.926Z,15.50
2023-01-07T05:55:27.131Z,15.70
2023-01-07T05:57:59.877Z,18.50
2023-01-07T06:00:32.068Z,15.20
2023-01-07T06:03:04.452Z,14.70
2023-01-07T06:05:36.768Z,13.40
2023-01-07T06:08:09.230Z,15.40
2023-01-07T06:10:41.825Z,12.90
2023-01-07T06:13:14.125Z,14.00
2023-01-07T06:15:46.399Z,11.70
2023-01-07T06:18:18.605Z,13.40
2023-01-07T06:20:51.839Z,13.30
2023-01-07T06:23:24.418Z,10.80
2023-01-07T06:25:56.589Z,11.80
2023-01-07T06:28:28.789Z,12.70
2023-01-07T06:31:01.102Z,12.10
2023-01-07T06:33:33.670Z,10.70
2023-01-07T06:36:07.186Z,14.20
2023-01-07T06:38:39.508Z,11.90
2023-01-07T06:41:11.749Z,12.60
2023-01-07T06:43:43.973Z,11.00
2023-01-07T06:46:16.556Z,14.50
2023-01-07T06:48:48.844Z,13.90
2023-01-07T06:51:21.050Z,15.90
2023-01-07T06:53:53.336Z,15.80
2023-01-07T06:56:25.519Z,16.00
2023-01-07T06:58:57.695Z,16.00
2023-01-07T07:01:29.956Z,15.90
2023-01-07T07:04:02.409Z,15.40
2023-01-07T07:06:34.710Z,16.40
2023-01-07T07:09:06.925Z,19.20
2023-01-07T07:11:39.269Z,17.60
2023-01-07T07:14:11.616Z,17.60
2023-01-07T07:16:43.799Z,18.60
2023-01-07T07:19:15.925Z,17.70
2023-01-07T07:21:49.662Z,18.90
2023-01-07T07:24:21.838Z,18.80
2023-01-07T07:26:54.460Z,22.30
2023-01-07T07:29:26.721Z,18.90
2023-01-07T07:31:59.089Z,16.70
2023-01-07T07:34:31.293Z,19.40
2023-01-07T07:37:03.786Z,18.20
2023-01-07T07:39:36.233Z,20.60
2023-01-07T07:42:09.061Z,17.90
2023-01-07T07:44:41.263Z,18.50
2023-01-07T07:47:13.506Z,15.70
2023-01-07T07:49:45.706Z,18.30
2023-01-07T07:52:18.006Z,16.20
2023-01-07T07:54:50.183Z,14.90
2023-01-07T07:57:22.346Z,13.00
2023-01-07T07:59:54.515Z,11.50
2023-01-07T08:02:26.768Z,10.90
2023-01-07T08:04:58.994Z,13.80
2023-01-07T08:07:32.672Z,10.40
2023-01-07T08:10:08.885Z,11.20
2023-01-07T08:12:41.636Z,10.90
2023-01-07T08:15:14.419Z,10.90
2023-01-07T08:17:46.616Z,11.70
2023-01-07T08:20:19.048Z,10.20
2023-01-07T08:22:51.378Z,10.10
2023-01-07T08:25:23.669Z,8.40
2023-01-07T08:27:57.344Z,7.30
2023-01-07T08:30:30.001Z,8.90
2023-01-07T08:33:04.984Z,7.10
2023-01-07T08:35:37.782Z,8.40
2023-01-07T08:38:11.310Z,6.70
2023-01-07T08:40:44.431Z,7.50
2023-01-07T08:43:16.621Z,7.20
2023-01-07T08:45:53.338Z,7.60
2023-01-07T08:48:25.878Z,7.60
2023-01-07T08:50:58.117Z,9.80
2023-01-07T08:53:30.422Z,8.40
2023-01-07T08:56:02.808Z,8.50
2023-01-07T08:58:35.302Z,9.20
2023-01-07T09:01:08.966Z,12.50
2023-01-07T09:03:41.591Z,9.60
2023-01-07T09:06:14.118Z,10.50
2023-01-07T09:08:46.435Z,11.10
2023-01-07T09:11:18.704Z,9.90
2023-01-07T09:13:50.919Z,13.50
2023-01-07T09:16:23.268Z,11.00
2023-01-07T09:18:55.442Z,11.60
2023-01-07T09:21:27.698Z,9.90
2023-01-07T09:23:59.861Z,10.40
2023-01-07T09:26:32.093Z,10.40
2023-01-07T09:29:04.442Z,8.80
2023-01-07T09:31:36.833Z,7.10
2023-01-07T09:34:09.259Z,7.60
2023-01-07T09:36:41.523Z,8.10
2023-01-07T09:39:15.392Z,7.30
2023-01-07T09:41:57.285Z,9.30
2023-01-07T09:44:44.749Z,7.60
2023-01-07T09:47:22.046Z,7.50
2023-01-07T09:49:58.786Z,7.20
2023-01-07T09:52:37.325Z,8.10
2023-01-07T09:55:17.976Z,7.80
2023-01-07T09:57:50.665Z,8.70
2023-01-07T10:00:25.765Z,9.90
2023-01-07T10:03:15.670Z,8.50
2023-01-07T10:06:01.692Z,8.70
2023-01-07T10:08:47.033Z,8.10
2023-01-07T10:11:34.063Z,9.10
2023-01-07T10:14:26.711Z,7.40
2023-01-07T10:17:04.100Z,8.00
2023-01-07T10:19:48.897Z,8.90
2023-01-07T10:22:30.460Z,7.30
2023-01-07T10:25:06.630Z,8.20
2023-01-07T10:27:44.033Z,9.30
2023-01-07T10:30:20.353Z,7.90
2023-01-07T10:33:00.248Z,9.60
2023-01-07T10:35:36.333Z,9.20
2023-01-07T10:38:15.074Z,9.00
2023-01-07T10:40:53.101Z,9.60
2023-01-07T10:43:42.627Z,7.40
2023-01-07T10:46:30.395Z,7.70
2023-01-07T10:49:26.695Z,5.80
2023-01-07T10:52:14.145Z,5.60
2023-01-07T10:55:04.275Z,7.60
2023-01-07T10:57:37.816Z,8.20
2023-01-07T11:00:17.646Z,7.70
2023-01-07T11:02:54.694Z,7.60
2023-01-07T11:05:29.777Z,8.70
2023-01-07T11:08:04.691Z,7.40
2023-01-07T11:10:39.426Z,9.40
2023-01-07T11:13:20.307Z,6.80
2023-01-07T11:15:57.161Z,8.90
2023-01-07T11:18:33.300Z,9.20
2023-01-07T11:21:05.515Z,8.20
2023-01-07T11:23:41.349Z,9.10
2023-01-07T11:26:19.258Z,7.70
2023-01-07T11:28:54.900Z,8.20
2023-01-07T11:31:47.159Z,10.40
2023-01-07T11:34:24.901Z,9.60
2023-01-07T11:36:57.572Z,9.70
2023-01-07T11:39:31.752Z,8.40
2023-01-07T11:42:29.926Z,9.10
2023-01-07T11:45:19.380Z,9.30
2023-01-07T11:48:02.177Z,7.60
2023-01-07T11:50:38.509Z,6.90
2023-01-07T11:53:28.401Z,8.00
2023-01-07T11:56:03.563Z,7.90
2023-01-07T11:58:38.519Z,6.30
2023-01-07T12:01:19.925Z,9.40
2023-01-07T12:04:13.620Z,9.40
2023-01-07T12:06:48.295Z,7.60
2023-01-07T12:09:27.887Z,8.30
2023-01-07T12:12:07.957Z,7.50
2023-01-07T12:14:41.785Z,8.40
2023-01-07T12:17:19.362Z,10.20
2023-01-07T12:20:22.427Z,7.00
2023-01-07T12:23:05.340Z,6.50
2023-01-07T12:25:45.563Z,8.90
2023-01-07T12:28:20.512Z,6.10
2023-01-07T12:31:14.228Z,8.40
2023-01-07T12:34:06.272Z,6.10
2023-01-07T12:36:47.642Z,7.40
2023-01-07T12:39:26.553Z,6.10
2023-01-07T12:42:05.208Z,5.60
2023-01-07T12:44:43.050Z,6.90
2023-01-07T12:47:32.569Z,5.90
2023-01-07T12:50:14.563Z,8.20
2023-01-07T12:52:51.683Z,12.60
2023-01-07T12:55:27.788Z,11.30
2023-01-07T12:58:11.441Z,8.50
2023-01-07T13:00:50.536Z,9.30
2023-01-07T13:03:33.812Z,6.50
2023-01-07T13:06:12.368Z,9.10
2023-01-07T13:08:48.740Z,9.00
2023-01-07T13:11:47.935Z,7.90
2023-01-07T13:14:25.366Z,7.20
2023-01-07T13:17:13.258Z,6.40
2023-01-07T13:19:45.663Z,8.30
2023-01-07T13:22:25.717Z,8.10
2023-01-07T13:25:13.396Z,9.50
2023-01-07T13:28:07.772Z,7.30
2023-01-07T13:30:53.690Z,8.60
2023-01-07T13:33:33.721Z,7.60
2023-01-07T13:36:15.581Z,7.90
2023-01-07T13:39:05.056Z,9.30
2023-01-07T13:41:59.215Z,8.40
2023-01-07T13:44:56.654Z,9.10
2023-01-07T13:47:37.468Z,9.50
2023-01-07T13:50:21.793Z,9.30
2023-01-07T13:53:04.148Z,9.60
2023-01-07T13:55:40.002Z,9.40
2023-01-07T14:01:08.418Z,9.60
2023-01-07T14:03:53.461Z,10.60
2023-01-07T14:06:50.612Z,9.60
2023-01-07T14:09:41.162Z,8.20
2023-01-07T14:12:45.333Z,8.50
2023-01-07T14:15:39.729Z,9.60
2023-01-07T14:18:47.517Z,10.30
2023-01-07T14:21:30.624Z,10.40
2023-01-07T14:24:23.994Z,9.60
2023-01-07T14:27:04.862Z,8.80
2023-01-07T14:29:48.655Z,9.50
2023-01-07T14:32:32.359Z,9.30
2023-01-07T14:35:08.292Z,10.70
2023-01-07T14:37:43.036Z,9.20
2023-01-07T14:40:59.761Z,8.30
2023-01-07T14:44:03.356Z,9.20
2023-01-07T14:46:49.834Z,9.00
2023-01-07T14:49:49.867Z,9.40
2023-01-07T14:52:40.279Z,9.50
2023-01-07T14:55:43.539Z,9.40
2023-01-07T14:58:28.230Z,8.70
2023-01-07T15:01:35.819Z,10.00
2023-01-07T15:04:37.830Z,8.60
2023-01-07T15:07:17.993Z,8.50
2023-01-07T15:10:12.892Z,9.40
2023-01-07T15:13:07.982Z,9.00
2023-01-07T15:16:00.160Z,9.90
2023-01-07T15:18:36.150Z,10.60
2023-01-07T15:21:20.502Z,8.70
2023-01-07T15:24:01.380Z,11.00
2023-01-07T15:26:44.286Z,11.60
2023-01-07T15:29:28.196Z,11.40
2023-01-07T15:32:10.052Z,10.50
2023-01-07T15:34:42.867Z,11.80
2023-01-07T15:37:17.022Z,11.10
2023-01-07T15:39:54.713Z,10.70
2023-01-07T15:42:29.208Z,12.20
2023-01-07T15:45:02.143Z,12.30
2023-01-07T15:47:41.651Z,9.90
2023-01-07T15:50:29.903Z,11.50
2023-01-07T15:53:04.150Z,11.20
2023-01-07T15:55:41.810Z,11.00
2023-01-07T15:58:17.470Z,11.30
2023-01-07T16:00:54.775Z,13.50
2023-01-07T16:03:28.155Z,12.60
2023-01-07T16:06:01.717Z,13.40
2023-01-07T16:08:35.624Z,13.30
2023-01-07T16:11:24.958Z,10.90
2023-01-07T16:14:01.968Z,12.60
2023-01-07T16:16:35.338Z,11.70
2023-01-07T16:19:07.685Z,15.70
2023-01-07T16:21:46.519Z,13.60
2023-01-07T16:24:19.864Z,13.30
2023-01-07T16:26:55.379Z,14.90
2023-01-07T16:29:31.038Z,14.30
2023-01-07T16:32:05.930Z,14.20
2023-01-07T16:35:02.764Z,12.90
2023-01-07T16:37:39.767Z,14.20
2023-01-07T16:40:21.300Z,14.20
2023-01-07T16:42:53.739Z,14.60
2023-01-07T16:45:32.559Z,15.70
2023-01-07T16:48:19.614Z,15.10
2023-01-07T16:50:53.412Z,14.40
2023-01-07T16:53:32.553Z,14.50
2023-01-07T16:56:21.403Z,14.30
2023-01-07T16:58:56.714Z,14.00
2023-01-07T17:01:35.933Z,15.80
2023-01-07T17:04:17.771Z,15.00
2023-01-07T17:06:50.283Z,14.50
2023-01-07T17:09:25.915Z,15.60
2023-01-07T17:11:59.634Z,15.90
2023-01-07T17:14:51.743Z,16.70
2023-01-07T17:17:33.888Z,16.30
2023-01-07T17:20:22.556Z,18.20
2023-01-07T17:22:54.792Z,15.00
2023-01-07T17:25:29.581Z,18.40
2023-01-07T17:28:08.049Z,16.90
2023-01-07T17:30:41.826Z,17.60
2023-01-07T17:33:18.432Z,18.50
2023-01-07T17:35:51.064Z,17.30
2023-01-07T17:38:23.546Z,18.30
2023-01-07T17:40:56.479Z,20.30
2023-01-07T17:43:35.411Z,22.70
2023-01-07T17:46:11.791Z,20.80
2023-01-07T17:48:44.023Z,20.70
2023-01-07T17:51:16.246Z,22.00
2023-01-07T17:53:51.383Z,22.40
2023-01-07T17:56:23.599Z,20.90
2023-01-07T17:58:56.346Z,25.20
2023-01-07T18:01:29.381Z,21.40
2023-01-07T18:04:01.631Z,21.80
2023-01-07T18:06:35.191Z,22.40
2023-01-07T18:09:08.843Z,20.40
2023-01-07T18:12:00.810Z,23.00
2023-01-07T18:14:33.765Z,22.10
2023-01-07T18:17:07.440Z,20.60
2023-01-07T18:19:39.993Z,20.20
2023-01-07T18:22:12.313Z,19.80
2023-01-07T18:24:44.920Z,23.50
2023-01-07T18:27:18.516Z,25.10
2023-01-07T18:29:50.816Z,21.80
2023-01-07T18:32:23.088Z,23.20
2023-01-07T18:34:55.382Z,24.10
2023-01-07T18:37:27.606Z,25.10
2023-01-07T18:40:02.472Z,25.00
2023-01-07T18:42:36.137Z,20.10
2023-01-07T18:45:10.417Z,23.50
2023-01-07T18:47:43.238Z,25.70
2023-01-07T18:50:15.520Z,25.00
2023-01-07T18:52:48.099Z,23.90
2023-01-07T18:55:21.070Z,24.10
2023-01-07T18:57:53.273Z,24.40
2023-01-07T19:00:25.773Z,22.70
2023-01-07T19:02:59.013Z,24.70
2023-01-07T19:05:31.897Z,23.10
2023-01-07T19:08:04.177Z,24.70
2023-01-07T19:10:37.732Z,24.40
2023-01-07T19:13:10.010Z,25.30
2023-01-07T19:15:43.229Z,28.60
2023-01-07T19:18:15.438Z,27.30
2023-01-07T19:20:47.703Z,25.90
2023-01-07T19:23:19.885Z,25.80
2023-01-07T19:26:01.478Z,28.00
2023-01-07T19:28:34.082Z,30.00
2023-01-07T19:31:09.986Z,26.40
2023-01-07T19:36:17.564Z,26.30
2023-01-07T19:38:50.483Z,28.60
2023-01-07T19:41:23.934Z,25.30
2023-01-07T19:44:01.216Z,30.30
2023-01-07T19:46:34.964Z,29.20
2023-01-07T19:49:07.316Z,30.40
2023-01-07T19:51:41.994Z,26.40
2023-01-07T19:54:16.467Z,26.80
2023-01-07T19:56:48.890Z,30.00
2023-01-07T19:59:21.114Z,27.00
2023-01-07T20:01:54.644Z,30.60
2023-01-07T20:04:27.521Z,30.50
2023-01-07T20:06:59.706Z,27.80
2023-01-07T20:09:32.963Z,30.50
2023-01-07T20:12:05.523Z,30.30
2023-01-07T20:14:37.701Z,32.20
2023-01-07T20:17:09.969Z,32.70
2023-01-07T20:19:42.296Z,32.80
2023-01-07T20:22:14.576Z,35.50
2023-01-07T20:24:47.189Z,36.40
2023-01-07T20:27:19.308Z,40.90
2023-01-07T20:29:51.489Z,42.20
2023-01-07T20:32:23.826Z,52.20
2023-01-07T20:34:56.101Z,44.10
2023-01-07T20:37:28.401Z,60.60
2023-01-07T20:40:00.802Z,54.20
2023-01-07T20:42:33.187Z,50.30
2023-01-07T20:45:05.914Z,60.00
2023-01-07T20:47:38.112Z,60.70
2023-01-07T20:50:11.067Z,66.30
2023-01-07T20:52:43.290Z,61.00
2023-01-07T20:55:15.567Z,58.30
2023-01-07T20:57:47.833Z,58.00
2023-01-07T21:00:20.393Z,53.60
2023-01-07T21:02:52.745Z,54.90
2023-01-07T21:05:25.297Z,51.90
2023-01-07T21:07:59.361Z,51.90
2023-01-07T21:10:31.551Z,62.50
2023-01-07T21:13:04.625Z,53.50
2023-01-07T21:15:38.629Z,54.30
2023-01-07T21:18:10.968Z,57.30
2023-01-07T21:20:43.768Z,53.10
2023-01-07T21:23:16.004Z,83.70
2023-01-07T21:25:50.830Z,59.60
2023-01-07T21:28:23.113Z,56.60
2023-01-07T21:30:55.494Z,53.70
2023-01-07T21:33:27.734Z,57.80
2023-01-07T21:36:00.873Z,88.50
2023-01-07T21:38:33.037Z,133.10
2023-01-07T21:41:10.261Z,135.90
2023-01-07T21:43:43.230Z,113.60
2023-01-07T21:46:16.442Z,117.00
2023-01-07T21:48:48.655Z,117.80
2023-01-07T21:51:22.598Z,145.10
2023-01-07T21:53:56.410Z,139.10
2023-01-07T21:56:32.785Z,139.90
2023-01-07T21:59:05.164Z,133.90
2023-01-07T22:01:37.864Z,141.30
2023-01-07T22:04:10.310Z,138.20
2023-01-07T22:06:43.125Z,140.70
2023-01-07T22:09:17.158Z,135.70
2023-01-07T22:11:49.321Z,150.50
2023-01-07T22:14:23.988Z,146.70
2023-01-07T22:16:56.132Z,151.90
2023-01-07T22:19:28.745Z,155.40
2023-01-07T22:22:01.403Z,148.30
2023-01-07T22:24:33.577Z,142.60
2023-01-07T22:27:06.083Z,152.90
2023-01-07T22:29:39.158Z,135.20
2023-01-07T22:32:11.407Z,149.30
2023-01-07T22:34:43.626Z,139.60
2023-01-07T22:37:20.137Z,142.20
2023-01-07T22:39:57.848Z,145.90
2023-01-07T22:42:34.494Z,150.90
2023-01-07T22:45:11.973Z,148.00
2023-01-07T22:47:49.457Z,147.40
2023-01-07T22:50:22.062Z,108.70
2023-01-07T22:52:54.613Z,137.10
2023-01-07T22:55:26.902Z,139.10
2023-01-07T22:57:59.788Z,144.60
2023-01-07T23:00:56.128Z,141.60
2023-01-07T23:03:28.519Z,146.50
2023-01-07T23:06:00.776Z,119.00
2023-01-07T23:08:33.003Z,98.30
2023-01-07T23:11:05.522Z,113.60
2023-01-07T23:13:38.152Z,109.40
2023-01-07T23:16:10.824Z,109.70
2023-01-07T23:18:43.023Z,104.60
2023-01-07T23:21:15.327Z,102.80
2023-01-07T23:23:47.545Z,99.20
2023-01-07T23:26:22.374Z,91.70
2023-01-07T23:28:54.723Z,81.30
2023-01-07T23:31:27.092Z,82.30
2023-01-07T23:33:59.259Z,95.50
2023-01-07T23:36:31.649Z,93.10
2023-01-07T23:39:04.079Z,85.40
2023-01-07T23:41:36.549Z,80.40
2023-01-07T23:44:09.140Z,66.50
2023-01-07T23:46:41.306Z,65.90
2023-01-07T23:49:13.472Z,64.20
2023-01-07T23:51:47.445Z,56.90
2023-01-07T23:54:19.667Z,58.90
2023-01-07T23:56:51.988Z,69.40
2023-01-07T23:59:24.290Z,76.00
